Time;durP1;ratioP1;P1;durP2;ratioP2;P2;SDS_P1;SDS_P2;PMS_P1;PMS_P2;Temp;Humidity;BMP_temperature;BMP_pressure;BME280_temperature;BME280_humidity;BME280_pressure;Samples;Min_cycle;Max_cycle;Signal;HPM_P1;HPM_P2
2021/08/19 00:00:57;;;;;;;;;4.00;3.75;;;;;23.89;48.69;101257.03;5056805;28;45414;-51
2021/08/19 00:03:22;;;;;;;;;2.00;2.00;;;;;23.89;49.05;101256.16;5057164;28;45288;-50
2021/08/19 00:05:48;;;;;;;;;3.00;3.00;;;;;23.89;48.31;101256.16;5057254;28;45752;-50
2021/08/19 00:08:13;;;;;;;;;4.50;3.00;;;;;23.88;48.63;101259.75;5039218;28;45330;-50
2021/08/19 00:10:38;;;;;;;;;4.00;2.00;;;;;23.89;48.75;101256.16;5056985;28;45629;-50
2021/08/19 00:13:04;;;;;;;;;2.75;2.75;;;;;23.89;48.69;101258.81;5057013;28;45522;-52
2021/08/19 00:15:29;;;;;;;;;3.25;3.00;;;;;23.88;48.69;101252.66;5057346;28;45422;-48
2021/08/19 00:17:55;;;;;;;;;3.50;3.00;;;;;23.88;48.88;101254.44;5057216;28;45311;-49
2021/08/19 00:20:20;;;;;;;;;2.00;2.00;;;;;23.87;48.46;101247.44;5056693;28;46280;-52
2021/08/19 00:22:46;;;;;;;;;2.00;2.00;;;;;23.87;48.73;101250.09;5056825;28;45273;-51
2021/08/19 00:25:11;;;;;;;;;4.00;4.00;;;;;23.86;48.55;101245.78;5056738;28;46309;-49
2021/08/19 00:27:37;;;;;;;;;3.75;3.75;;;;;23.85;48.91;101244.09;5056957;28;45372;-51
2021/08/19 00:30:03;;;;;;;;;2.00;2.00;;;;;23.85;48.81;101241.44;5056976;28;45232;-49
2021/08/19 00:32:29;;;;;;;;;3.25;2.25;;;;;23.84;48.78;101234.44;5056981;28;45707;-49
2021/08/19 00:34:54;;;;;;;;;4.75;4.00;;;;;23.85;48.47;101228.19;5056667;28;45236;-51
2021/08/19 00:37:19;;;;;;;;;4.50;2.50;;;;;23.83;48.72;101224.78;5056889;28;45272;-54
2021/08/19 00:39:45;;;;;;;;;4.50;3.50;;;;;23.84;48.87;101229.13;5056467;28;45640;-51
2021/08/19 00:42:12;;;;;;;;;3.50;3.00;;;;;23.85;48.81;101222.91;5056507;28;45375;-52
2021/08/19 00:44:45;;;;;;;;;2.25;2.00;;;;;23.85;49.12;101223.75;5056692;28;45343;-50
2021/08/19 00:47:11;;;;;;;;;2.00;2.00;;;;;23.86;49.07;101224.59;5056734;28;45280;-52
2021/08/19 00:49:41;;;;;;;;;3.00;3.00;;;;;23.86;48.84;101227.25;5056217;28;46981;-53
2021/08/19 00:52:07;;;;;;;;;2.25;2.25;;;;;23.85;48.90;101225.56;5056394;28;45224;-53
2021/08/19 00:54:34;;;;;;;;;2.25;2.25;;;;;23.84;48.79;101223.84;5056887;28;45445;-53
2021/08/19 00:57:01;;;;;;;;;2.75;2.75;;;;;23.85;48.72;101221.09;5057007;28;45562;-54
2021/08/19 00:59:37;;;;;;;;;3.50;3.00;;;;;23.85;48.33;101222.91;5056045;28;46684;-51
2021/08/19 01:02:04;;;;;;;;;2.00;2.00;;;;;23.84;48.76;101223.84;5056584;28;45775;-48
2021/08/19 01:04:37;;;;;;;;;2.00;2.00;;;;;23.84;48.48;101221.19;5056677;28;45343;-51
2021/08/19 01:07:03;;;;;;;;;1.00;1.00;;;;;23.82;48.75;101218.63;5056741;28;45270;-53
2021/08/19 01:09:29;;;;;;;;;2.25;2.25;;;;;23.84;48.47;101221.19;5056082;28;45395;-51
2021/08/19 01:11:55;;;;;;;;;1.75;1.75;;;;;23.84;48.80;101226.50;5057519;28;45706;-51
2021/08/19 01:14:21;;;;;;;;;3.25;3.25;;;;;23.82;48.46;101220.44;5060161;28;45551;-49
2021/08/19 01:16:48;;;;;;;;;2.75;2.75;;;;;23.83;48.73;101216.84;5060449;28;45454;-51
2021/08/19 01:19:21;;;;;;;;;2.00;2.00;;;;;23.82;48.60;101217.78;5059600;28;46343;-54
2021/08/19 01:21:51;;;;;;;;;2.50;2.00;;;;;23.81;48.44;101219.59;5059622;28;45442;-53
2021/08/19 01:24:17;;;;;;;;;2.25;2.00;;;;;23.81;48.28;101210.81;5059829;28;45395;-51
2021/08/19 01:26:44;;;;;;;;;3.75;2.75;;;;;23.81;48.66;101210.81;5059754;28;45383;-53
2021/08/19 01:29:10;;;;;;;;;2.75;2.25;;;;;23.80;48.24;101209.09;5059299;28;46334;-52
2021/08/19 01:31:36;;;;;;;;;4.75;3.00;;;;;23.82;48.14;101217.78;5059970;28;45379;-53
2021/08/19 01:34:02;;;;;;;;;3.25;3.25;;;;;23.80;48.44;101209.09;5060051;28;45263;-52
2021/08/19 01:36:27;;;;;;;;;3.50;2.25;;;;;23.79;48.55;101208.25;5059817;28;45669;-53
2021/08/19 01:38:53;;;;;;;;;2.00;2.00;;;;;23.80;48.62;101202.03;5059220;28;46607;-51
2021/08/19 01:41:19;;;;;;;;;3.00;1.50;;;;;23.80;48.24;101204.66;5059327;28;45335;-52
2021/08/19 01:43:49;;;;;;;;;3.00;2.00;;;;;23.80;48.19;101203.81;5059473;28;45344;-51
2021/08/19 01:46:15;;;;;;;;;3.00;2.00;;;;;23.78;48.62;101202.09;5059561;28;45516;-49
2021/08/19 01:48:42;;;;;;;;;3.00;3.00;;;;;23.78;48.47;101191.50;5059300;28;45413;-53
2021/08/19 01:51:08;;;;;;;;;2.75;2.75;;;;;23.76;48.18;101182.81;5059202;28;45683;-49
2021/08/19 01:53:34;;;;;;;;;2.00;2.00;;;;;23.77;48.31;101194.28;5059647;28;45355;-54
2021/08/19 01:56:00;;;;;;;;;1.75;1.75;;;;;23.77;48.23;101197.75;5059403;28;45606;-54
2021/08/19 01:58:25;;;;;;;;;3.00;3.00;;;;;23.76;48.31;101198.69;5058736;28;46323;-54
2021/08/19 02:00:51;;;;;;;;;2.50;2.50;;;;;23.75;48.27;101207.63;5059180;28;45342;-52
2021/08/19 02:03:16;;;;;;;;;3.00;3.00;;;;;23.75;48.29;101202.31;5059087;28;45659;-54
2021/08/19 02:05:42;;;;;;;;;2.75;2.75;;;;;23.75;48.38;101197.03;5059278;28;45411;-54
2021/08/19 02:08:09;;;;;;;;;4.00;3.00;;;;;23.75;47.82;101196.16;5059111;28;45983;-54
2021/08/19 02:10:36;;;;;;;;;3.00;3.00;;;;;23.74;48.31;101195.31;5059336;28;45788;-51
2021/08/19 02:13:02;;;;;;;;;2.50;2.50;;;;;23.74;47.75;101195.31;5059009;28;45221;-50
2021/08/19 02:15:28;;;;;;;;;2.25;2.25;;;;;23.74;47.90;101192.69;5059392;28;46002;-52
2021/08/19 02:17:53;;;;;;;;;2.00;2.00;;;;;23.73;47.68;101193.63;5058881;28;45371;-51
2021/08/19 02:20:19;;;;;;;;;3.75;3.00;;;;;23.73;47.97;101198.03;5058694;28;45440;-49
2021/08/19 02:22:45;;;;;;;;;3.00;3.00;;;;;23.72;48.01;101189.28;5058432;28;45277;-53
2021/08/19 02:25:11;;;;;;;;;3.25;3.25;;;;;23.69;48.11;101191.28;5058980;28;45358;-50
2021/08/19 02:27:36;;;;;;;;;2.00;2.00;;;;;23.71;47.81;101192.88;5058788;28;45380;-54
2021/08/19 02:30:02;;;;;;;;;3.75;3.75;;;;;23.71;47.63;101192.00;5058590;28;45296;-53
2021/08/19 02:32:28;;;;;;;;;3.50;3.50;;;;;23.71;47.85;101189.34;5058593;28;45339;-53
2021/08/19 02:34:53;;;;;;;;;2.00;2.00;;;;;23.70;48.03;101183.22;5058852;28;45491;-54
2021/08/19 02:37:20;;;;;;;;;6.00;2.25;;;;;23.70;47.66;101179.75;5058353;28;46237;-54
2021/08/19 02:39:45;;;;;;;;;1.50;1.50;;;;;23.70;47.73;101185.03;5058496;28;45751;-53
2021/08/19 02:42:10;;;;;;;;;2.00;1.00;;;;;23.71;47.58;101184.06;5058529;28;45446;-53
2021/08/19 02:44:36;;;;;;;;;2.00;2.00;;;;;23.69;48.04;101163.00;5040971;28;45761;-52
2021/08/19 02:47:01;;;;;;;;;3.00;3.00;;;;;23.70;47.63;101179.75;5058267;28;46270;-53
2021/08/19 02:49:27;;;;;;;;;2.00;2.00;;;;;23.68;47.84;101163.94;5058258;28;45336;-52
2021/08/19 02:51:52;;;;;;;;;2.00;2.00;;;;;23.70;47.77;101163.88;5058334;28;45297;-53
2021/08/19 02:54:17;;;;;;;;;1.25;1.25;;;;;23.70;47.64;101166.50;5058531;28;45370;-50
2021/08/19 02:56:43;;;;;;;;;2.00;2.00;;;;;23.70;47.70;101175.28;5058042;28;45458;-52
2021/08/19 02:59:08;;;;;;;;;3.00;3.00;;;;;23.71;47.40;101171.69;5058392;28;45407;-54
2021/08/19 03:01:33;;;;;;;;;3.50;3.00;;;;;23.71;47.90;101160.25;5058296;28;45285;-53
2021/08/19 03:03:59;;;;;;;;;1.75;1.75;;;;;23.71;47.62;101158.47;5058377;28;45641;-54
2021/08/19 03:06:24;;;;;;;;;1.00;1.00;;;;;23.71;47.56;101157.59;5057830;28;50647;-53
2021/08/19 03:08:49;;;;;;;;;1.00;1.00;;;;;23.70;47.86;101155.94;5057854;28;45249;-52
2021/08/19 03:11:15;;;;;;;;;2.00;2.00;;;;;23.69;47.76;101155.06;5058107;28;45442;-53
2021/08/19 03:13:40;;;;;;;;;1.00;1.00;;;;;23.69;47.33;101152.41;5040437;28;45244;-51
2021/08/19 03:16:05;;;;;;;;;1.00;1.00;;;;;23.70;47.30;101154.09;5058039;28;46049;-53
2021/08/19 03:18:31;;;;;;;;;2.25;1.25;;;;;23.69;47.46;101160.34;5056611;28;45308;-51
2021/08/19 03:20:56;;;;;;;;;1.00;1.00;;;;;23.69;47.46;101154.22;5058024;28;45778;-52
2021/08/19 03:23:22;;;;;;;;;2.00;2.00;;;;;23.68;47.14;101153.34;5057982;28;45588;-51
2021/08/19 03:25:48;;;;;;;;;2.00;2.00;;;;;23.69;47.33;101154.22;5057598;28;46208;-52
2021/08/19 03:28:13;;;;;;;;;1.25;1.00;;;;;23.68;47.35;101161.28;5057652;28;45458;-50
2021/08/19 03:30:39;;;;;;;;;1.25;1.25;;;;;23.67;47.38;101151.66;5058225;28;45339;-51
2021/08/19 03:33:05;;;;;;;;;2.50;2.50;;;;;23.69;47.47;101164.81;5057930;28;45517;-49
2021/08/19 03:35:31;;;;;;;;;4.00;2.00;;;;;23.69;47.39;101155.06;5056509;28;46964;-50
2021/08/19 03:37:57;;;;;;;;;2.25;2.25;;;;;23.68;47.48;101147.22;5056347;28;45374;-50
2021/08/19 03:40:22;;;;;;;;;2.00;2.00;;;;;23.68;47.19;101147.22;5057552;28;45289;-51
2021/08/19 03:42:47;;;;;;;;;2.00;2.00;;;;;23.69;47.33;101151.56;5057804;28;45633;-53
2021/08/19 03:45:15;;;;;;;;;3.00;2.00;;;;;23.69;47.69;101147.13;5057429;28;47038;-52
2021/08/19 03:47:41;;;;;;;;;2.00;2.00;;;;;23.70;47.39;101146.16;5057574;28;45249;-51
2021/08/19 03:50:08;;;;;;;;;3.00;3.00;;;;;23.70;47.40;101140.03;5057596;28;45339;-54
2021/08/19 03:52:34;;;;;;;;;2.00;2.00;;;;;23.71;47.03;101142.59;5057572;28;45668;-53
2021/08/19 03:54:59;;;;;;;;;4.50;4.50;;;;;23.71;47.36;101142.59;5056973;28;46344;-50
2021/08/19 03:57:24;;;;;;;;;4.75;2.25;;;;;23.72;47.11;101144.28;5057257;28;45453;-54
2021/08/19 03:59:50;;;;;;;;;3.00;3.00;;;;;23.72;47.68;101149.56;5057140;28;45596;-51
2021/08/19 04:02:15;;;;;;;;;3.75;2.25;;;;;23.73;47.28;101145.97;5057440;28;45427;-49
2021/08/19 04:04:40;;;;;;;;;3.00;2.00;;;;;23.72;47.72;101139.00;5057262;28;45398;-49
2021/08/19 04:07:06;;;;;;;;;3.00;2.00;;;;;23.73;47.64;101145.97;5056939;28;45360;-47
2021/08/19 04:09:31;;;;;;;;;2.00;2.00;;;;;23.71;47.43;101141.72;5057245;28;45311;-49
2021/08/19 04:11:56;;;;;;;;;2.00;2.00;;;;;23.73;47.52;101145.13;5057217;28;45312;-51
2021/08/19 04:14:22;;;;;;;;;3.00;2.25;;;;;23.73;47.65;101155.69;5056605;28;52223;-49
2021/08/19 04:16:47;;;;;;;;;2.00;2.00;;;;;23.72;47.35;101146.06;5056942;28;45437;-48
2021/08/19 04:19:12;;;;;;;;;2.50;2.50;;;;;23.73;47.42;101145.97;5057289;28;45261;-47
2021/08/19 04:21:38;;;;;;;;;3.25;2.00;;;;;23.72;47.45;101141.63;5055813;28;45573;-50
2021/08/19 04:24:03;;;;;;;;;2.50;2.50;;;;;23.73;46.92;101145.13;5056749;28;46256;-49
2021/08/19 04:26:29;;;;;;;;;2.00;2.00;;;;;23.71;47.32;101145.22;5056764;28;45446;-53
2021/08/19 04:28:54;;;;;;;;;2.25;2.25;;;;;23.71;47.27;101145.22;5056950;28;45259;-49
2021/08/19 04:31:19;;;;;;;;;2.75;2.75;;;;;23.71;47.14;101141.72;5057217;28;45527;-48
2021/08/19 04:33:45;;;;;;;;;3.00;2.00;;;;;23.71;47.25;101142.59;5056676;28;45442;-49
2021/08/19 04:36:10;;;;;;;;;3.00;2.50;;;;;23.70;47.46;101135.59;5056993;28;45344;-49
2021/08/19 04:38:36;;;;;;;;;2.25;2.25;;;;;23.71;47.33;101139.94;5038615;28;45587;-48
2021/08/19 04:41:02;;;;;;;;;3.00;2.75;;;;;23.71;47.44;101139.94;5056820;28;45572;-48
2021/08/19 04:43:27;;;;;;;;;2.25;2.25;;;;;23.71;47.36;101139.06;5056398;28;46281;-48
2021/08/19 04:45:53;;;;;;;;;2.25;2.25;;;;;23.71;47.10;101145.22;5056224;28;45382;-50
2021/08/19 04:48:18;;;;;;;;;3.00;2.00;;;;;23.71;46.93;101136.41;5056513;28;45328;-52
2021/08/19 04:50:43;;;;;;;;;4.75;2.00;;;;;23.70;47.15;101140.88;5057072;28;45277;-50
2021/08/19 04:53:09;;;;;;;;;2.25;2.25;;;;;23.72;47.52;101148.72;5056105;28;45922;-49
2021/08/19 04:55:34;;;;;;;;;2.75;2.75;;;;;23.72;47.23;101146.94;5056374;28;45312;-50
2021/08/19 04:57:59;;;;;;;;;3.75;2.75;;;;;23.71;47.40;101150.53;5056542;28;45419;-50
2021/08/19 05:00:25;;;;;;;;;3.00;3.00;;;;;23.71;47.24;101153.16;5056427;28;45419;-48
2021/08/19 05:02:50;;;;;;;;;1.00;1.00;;;;;23.72;47.51;101156.66;5038304;28;45495;-49
2021/08/19 05:05:16;;;;;;;;;2.00;2.00;;;;;23.71;47.53;101152.31;5056658;28;45335;-51
2021/08/19 05:07:41;;;;;;;;;4.75;3.00;;;;;23.73;47.43;101155.69;5056316;28;45335;-48
2021/08/19 05:10:07;;;;;;;;;9.00;3.25;;;;;23.73;47.67;101163.66;5056735;28;45313;-50
2021/08/19 05:12:32;;;;;;;;;6.00;3.50;;;;;23.73;47.17;101171.59;5056091;28;45262;-49
2021/08/19 05:14:57;;;;;;;;;4.25;4.25;;;;;23.73;47.56;101159.22;5056110;28;45214;-50
2021/08/19 05:17:23;;;;;;;;;5.25;3.00;;;;;23.74;47.47;101160.91;5056361;28;45352;-48
2021/08/19 05:19:48;;;;;;;;;5.00;4.00;;;;;23.74;47.43;101163.56;5056452;28;45481;-48
2021/08/19 05:22:13;;;;;;;;;5.00;5.00;;;;;23.73;46.98;101164.50;5056200;28;46724;-50
2021/08/19 05:24:39;;;;;;;;;4.00;4.00;;;;;23.69;47.14;101159.50;5056026;28;45324;-49
2021/08/19 05:27:05;;;;;;;;;5.50;4.75;;;;;23.65;47.16;101164.13;5055574;28;45387;-48
2021/08/19 05:29:30;;;;;;;;;4.00;4.00;;;;;23.58;46.92;101165.47;5056367;28;45394;-47
2021/08/19 05:31:56;;;;;;;;;7.00;5.00;;;;;23.57;47.22;101171.72;5055916;28;46450;-49
2021/08/19 05:34:21;;;;;;;;;3.50;3.00;;;;;23.52;47.04;101171.16;5056047;28;45233;-48
2021/08/19 05:36:46;;;;;;;;;4.00;4.00;;;;;23.46;47.52;101161.81;5056340;28;45428;-49
2021/08/19 05:39:12;;;;;;;;;3.25;3.25;;;;;23.45;47.42;101173.34;5056136;28;45308;-50
2021/08/19 05:41:37;;;;;;;;;3.00;3.00;;;;;23.42;47.42;101179.69;5055786;28;45404;-50
2021/08/19 05:44:02;;;;;;;;;4.75;3.50;;;;;23.37;47.13;101173.81;5055660;28;46915;-49
2021/08/19 05:46:28;;;;;;;;;3.25;3.25;;;;;23.37;47.33;101180.91;5055937;28;45356;-49
2021/08/19 05:48:53;;;;;;;;;3.25;3.25;;;;;23.32;47.30;101178.53;5056156;28;45440;-50
2021/08/19 05:51:18;;;;;;;;;5.25;3.00;;;;;23.31;47.72;101182.16;5055909;28;46029;-48
2021/08/19 05:53:44;;;;;;;;;4.25;3.00;;;;;23.29;47.68;101176.94;5055874;28;45269;-51
2021/08/19 05:56:09;;;;;;;;;5.00;4.00;;;;;23.26;47.38;101171.00;5055853;28;45343;-51
2021/08/19 05:58:35;;;;;;;;;4.75;4.75;;;;;23.25;47.78;101174.56;5057942;28;45390;-48
2021/08/19 06:01:00;;;;;;;;;3.00;3.00;;;;;23.23;47.74;101172.03;5059147;28;45780;-48
2021/08/19 06:03:25;;;;;;;;;3.00;3.00;;;;;23.24;47.57;101183.44;5059088;28;45444;-48
2021/08/19 06:05:51;;;;;;;;;6.25;5.00;;;;;23.23;47.58;101173.81;5058457;28;45304;-50
2021/08/19 06:08:17;;;;;;;;;4.75;4.00;;;;;23.21;47.66;101170.41;5059489;28;45265;-50
2021/08/19 06:10:42;;;;;;;;;4.00;4.00;;;;;23.19;47.83;101178.44;5058927;28;45418;-48
2021/08/19 06:13:08;;;;;;;;;4.75;3.75;;;;;23.19;47.87;101174.94;5058983;28;45383;-50
2021/08/19 06:15:33;;;;;;;;;4.00;4.00;;;;;23.17;47.90;101173.22;5059147;28;45201;-48
2021/08/19 06:17:59;;;;;;;;;3.00;3.00;;;;;23.10;48.07;101171.88;5059112;28;45305;-48
2021/08/19 06:20:25;;;;;;;;;5.50;5.00;;;;;23.07;48.15;101168.59;5058731;28;45644;-48
2021/08/19 06:22:52;;;;;;;;;3.25;3.25;;;;;23.03;47.91;101165.28;5058705;28;45277;-51
2021/08/19 06:25:18;;;;;;;;;6.50;4.50;;;;;23.06;48.30;101173.03;5059317;28;45316;-50
2021/08/19 06:27:43;;;;;;;;;3.00;2.25;;;;;23.06;48.22;101169.53;5058908;28;45572;-48
2021/08/19 06:30:10;;;;;;;;;5.75;5.00;;;;;23.06;48.11;101166.88;5058543;28;45454;-48
2021/08/19 06:32:36;;;;;;;;;4.50;4.50;;;;;23.05;47.90;101166.03;5058561;28;45393;-52
2021/08/19 06:35:01;;;;;;;;;7.25;6.50;;;;;23.06;47.78;101167.75;5058655;28;45341;-50
2021/08/19 06:37:27;;;;;;;;;4.00;4.00;;;;;23.07;48.14;101166.81;5058801;28;45229;-51
2021/08/19 06:39:52;;;;;;;;;4.50;4.00;;;;;23.08;47.94;101168.50;5058401;28;45452;-50
2021/08/19 06:42:17;;;;;;;;;4.25;4.00;;;;;23.08;48.03;101172.94;5058666;28;48298;-52
2021/08/19 06:44:42;;;;;;;;;6.00;5.00;;;;;23.09;48.06;101169.34;5058589;28;45232;-48
2021/08/19 06:47:08;;;;;;;;;6.25;6.25;;;;;23.09;47.90;101164.91;5058670;28;45673;-51
2021/08/19 06:49:33;;;;;;;;;8.50;5.50;;;;;23.07;48.17;101169.44;5058353;28;45511;-51
2021/08/19 06:51:58;;;;;;;;;6.00;6.00;;;;;23.02;48.10;101155.66;5058304;28;45241;-49
2021/08/19 06:54:24;;;;;;;;;7.25;6.00;;;;;23.00;48.07;101162.81;5058350;28;45277;-49
2021/08/19 06:56:49;;;;;;;;;6.00;6.00;;;;;22.98;48.09;101168.22;5058922;28;45229;-48
2021/08/19 06:59:16;;;;;;;;;4.75;4.75;;;;;22.98;48.16;101170.00;5057959;28;45451;-47
2021/08/19 07:01:42;;;;;;;;;6.00;6.00;;;;;22.98;48.08;101170.84;5058063;28;45911;-49
2021/08/19 07:04:07;;;;;;;;;8.00;5.50;;;;;22.98;48.41;101170.00;5058228;28;45798;-48
2021/08/19 07:06:32;;;;;;;;;5.75;5.25;;;;;22.97;48.13;101173.59;5057124;28;45840;-49
2021/08/19 07:08:58;;;;;;;;;6.00;6.00;;;;;22.93;48.11;101172.06;5057629;28;45985;-49
2021/08/19 07:11:23;;;;;;;;;5.00;5.00;;;;;22.92;48.26;101173.00;5058076;28;45395;-48
2021/08/19 07:13:50;;;;;;;;;5.00;5.00;;;;;22.91;48.23;101169.53;5058453;28;45388;-49
2021/08/19 07:16:15;;;;;;;;;4.75;4.00;;;;;22.94;48.28;101174.59;5056777;28;45346;-48
2021/08/19 07:18:41;;;;;;;;;6.25;5.50;;;;;22.95;48.14;101173.66;5057766;28;45347;-48
2021/08/19 07:21:06;;;;;;;;;8.75;7.00;;;;;22.95;48.35;101165.75;5039785;28;45262;-48
2021/08/19 07:23:32;;;;;;;;;6.25;4.50;;;;;22.93;48.32;101167.63;5039858;28;45392;-47
2021/08/19 07:25:57;;;;;;;;;6.75;6.00;;;;;22.94;48.40;101164.03;5058025;28;45594;-48
2021/08/19 07:28:23;;;;;;;;;5.25;5.00;;;;;22.98;48.30;101170.00;5039805;28;47128;-49
2021/08/19 07:30:48;;;;;;;;;5.50;5.00;;;;;22.98;48.28;101159.44;5039712;28;45383;-48
2021/08/19 07:33:13;;;;;;;;;5.00;5.00;;;;;22.97;48.39;101171.78;5057794;28;45366;-48
2021/08/19 07:35:39;;;;;;;;;8.00;6.00;;;;;22.98;48.26;101170.84;5039752;28;45685;-52
2021/08/19 07:38:04;;;;;;;;;5.75;4.75;;;;;22.99;48.20;101167.25;5039399;28;47084;-48
2021/08/19 07:40:31;;;;;;;;;5.25;5.25;;;;;22.98;48.32;101160.28;5057438;28;45217;-47
2021/08/19 07:42:57;;;;;;;;;6.00;6.00;;;;;22.99;48.34;101167.25;5057595;28;45415;-48
2021/08/19 07:45:25;;;;;;;;;8.50;6.50;;;;;22.97;48.30;101163.84;5058074;28;45336;-51
2021/08/19 07:47:51;;;;;;;;;9.00;8.00;;;;;22.97;48.65;101165.66;5057576;28;46502;-48
2021/08/19 07:50:17;;;;;;;;;4.50;4.50;;;;;22.97;48.46;101163.84;5057291;28;45465;-51
2021/08/19 07:52:42;;;;;;;;;5.00;5.00;;;;;23.00;48.39;101160.16;5057489;28;45360;-48
2021/08/19 07:55:10;;;;;;;;;5.50;5.50;;;;;23.00;48.47;101168.09;5057377;28;45448;-50
2021/08/19 07:57:48;;;;;;;;;6.25;5.00;;;;;23.01;48.33;101160.09;5057221;28;45534;-48
2021/08/19 08:00:19;;;;;;;;;8.00;6.25;;;;;23.02;48.13;101163.56;5057141;28;45938;-49
2021/08/19 08:02:44;;;;;;;;;6.25;6.00;;;;;23.03;48.25;101165.28;5057345;28;45356;-48
2021/08/19 08:05:10;;;;;;;;;5.25;5.25;;;;;23.07;48.14;101165.94;5057236;28;45600;-48
2021/08/19 08:07:36;;;;;;;;;9.75;7.50;;;;;23.11;48.02;101176.22;5056574;28;45481;-49
2021/08/19 08:10:04;;;;;;;;;6.00;5.50;;;;;23.14;47.93;101175.22;5057007;28;45439;-48
2021/08/19 08:12:29;;;;;;;;;8.25;8.25;;;;;23.11;48.07;101167.47;5057106;28;45439;-49
2021/08/19 08:14:55;;;;;;;;;10.00;7.00;;;;;23.10;48.04;101179.81;5057594;28;45379;-48
2021/08/19 08:17:20;;;;;;;;;7.00;5.00;;;;;23.09;48.02;101186.06;5056700;28;46618;-48
2021/08/19 08:19:49;;;;;;;;;5.75;5.75;;;;;23.08;48.00;101184.38;5056802;28;45409;-49
2021/08/19 08:22:14;;;;;;;;;5.50;5.50;;;;;23.07;48.07;101182.66;5056788;28;45379;-46
2021/08/19 08:24:40;;;;;;;;;6.50;6.25;;;;;23.05;48.24;101181.91;5057145;28;45412;-47
2021/08/19 08:27:06;;;;;;;;;4.00;4.00;;;;;23.07;48.07;101180.03;5056626;28;45352;-48
2021/08/19 08:29:32;;;;;;;;;8.75;8.75;;;;;23.05;47.81;101181.03;5056978;28;45395;-47
2021/08/19 08:32:01;;;;;;;;;8.75;7.00;;;;;23.05;48.09;101181.91;5056692;28;45347;-48
2021/08/19 08:34:27;;;;;;;;;6.00;6.00;;;;;23.06;47.77;101188.03;5057191;28;45633;-49
2021/08/19 08:36:53;;;;;;;;;5.00;5.00;;;;;23.07;48.16;101185.31;5056962;28;45802;-49
2021/08/19 08:39:19;;;;;;;;;7.00;5.50;;;;;23.08;48.01;101189.66;5056647;28;45399;-47
2021/08/19 08:41:44;;;;;;;;;7.75;6.00;;;;;23.08;47.70;101189.66;5056752;28;45498;-50
2021/08/19 08:44:11;;;;;;;;;5.75;5.75;;;;;23.08;47.89;101187.00;5056902;28;45217;-47
2021/08/19 08:46:37;;;;;;;;;7.50;6.50;;;;;23.09;47.68;101194.00;5056498;28;46603;-47
2021/08/19 08:49:03;;;;;;;;;5.75;5.75;;;;;23.09;47.83;101188.72;5056515;28;45438;-47
2021/08/19 08:51:30;;;;;;;;;9.50;6.00;;;;;23.09;47.49;101194.00;5056746;28;45471;-50
2021/08/19 08:53:55;;;;;;;;;6.00;6.00;;;;;23.11;47.62;101192.09;5039100;28;45340;-47
2021/08/19 08:56:21;;;;;;;;;6.75;5.75;;;;;23.11;47.46;101191.25;5056382;28;46206;-47
2021/08/19 08:58:46;;;;;;;;;7.75;7.00;;;;;23.10;47.58;101194.84;5056192;28;45494;-47
2021/08/19 09:01:12;;;;;;;;;7.75;6.50;;;;;23.07;47.67;101198.53;5056488;28;45438;-49
2021/08/19 09:03:37;;;;;;;;;8.75;6.00;;;;;23.08;48.00;101200.22;5056633;28;45241;-50
2021/08/19 09:06:02;;;;;;;;;10.00;10.00;;;;;23.09;47.81;101201.94;5056211;28;45572;-49
2021/08/19 09:08:28;;;;;;;;;7.00;7.00;;;;;23.09;47.94;101199.28;5038508;28;45268;-47
2021/08/19 09:10:57;;;;;;;;;8.00;6.00;;;;;23.10;47.68;101200.97;5056495;28;45646;-49
2021/08/19 09:13:27;;;;;;;;;5.75;5.75;;;;;23.11;47.67;101202.66;5056535;28;45356;-48
2021/08/19 09:15:53;;;;;;;;;5.50;5.50;;;;;23.12;47.81;101204.38;5056135;28;46194;-48
2021/08/19 09:18:34;;;;;;;;;7.00;6.00;;;;;23.11;47.61;101207.97;5056153;28;45868;-53
2021/08/19 09:21:01;;;;;;;;;7.00;7.00;;;;;23.12;47.63;101204.38;5056678;28;45388;-47
2021/08/19 09:23:27;;;;;;;;;11.25;6.75;;;;;23.09;47.51;101203.72;5056733;28;45596;-49
2021/08/19 09:25:53;;;;;;;;;7.50;5.00;;;;;23.07;47.53;101206.47;5056048;28;45728;-50
2021/08/19 09:28:18;;;;;;;;;5.00;5.00;;;;;23.07;47.36;101209.09;5055750;28;45527;-49
2021/08/19 09:30:49;;;;;;;;;8.25;5.50;;;;;23.09;47.37;101203.72;5056202;28;45237;-49
2021/08/19 09:33:17;;;;;;;;;6.50;6.50;;;;;23.08;47.35;101200.22;5057819;28;45327;-47
2021/08/19 09:35:44;;;;;;;;;3.50;3.25;;;;;23.09;47.24;101201.94;5059491;28;46229;-50
2021/08/19 09:38:13;;;;;;;;;6.75;6.75;;;;;23.10;47.08;101205.41;5059421;28;46369;-49
2021/08/19 09:40:39;;;;;;;;;4.00;4.00;;;;;23.07;46.77;101198.53;5059558;28;45359;-47
2021/08/19 09:43:05;;;;;;;;;5.25;4.00;;;;;23.09;46.64;101209.00;5059630;28;45323;-48
2021/08/19 09:45:30;;;;;;;;;4.25;4.00;;;;;23.07;46.88;101205.59;5041554;28;47153;-47
2021/08/19 09:48:08;;;;;;;;;5.00;5.00;;;;;23.05;47.02;101197.78;5059544;28;45431;-48
2021/08/19 09:50:34;;;;;;;;;5.25;4.25;;;;;23.04;46.91;101193.41;5059335;28;45225;-50
2021/08/19 09:53:20;;;;;;;;;5.00;5.00;;;;;23.05;47.17;101208.34;5059855;28;45607;-49
2021/08/19 09:55:46;;;;;;;;;3.00;3.00;;;;;23.03;46.97;101199.66;5059305;28;45863;-50
2021/08/19 09:58:27;;;;;;;;;4.50;4.50;;;;;23.05;47.06;101199.53;5059243;28;45596;-48
2021/08/19 10:00:53;;;;;;;;;4.25;4.25;;;;;23.03;47.13;101193.53;5041490;28;45302;-49
2021/08/19 10:03:19;;;;;;;;;5.50;5.50;;;;;22.99;47.32;101192.84;5059219;28;45217;-52
2021/08/19 10:05:45;;;;;;;;;4.75;4.75;;;;;22.96;47.25;101187.75;5058887;28;46300;-50
2021/08/19 10:08:12;;;;;;;;;6.00;6.00;;;;;22.95;47.36;101192.16;5059024;28;45267;-47
2021/08/19 10:10:38;;;;;;;;;5.00;5.00;;;;;22.94;47.16;101190.47;5059018;28;45490;-49
2021/08/19 10:13:04;;;;;;;;;4.50;4.00;;;;;22.95;47.25;101186.03;5059224;28;45327;-51
2021/08/19 10:15:34;;;;;;;;;4.50;3.50;;;;;22.96;47.18;101188.59;5058992;28;45576;-47
2021/08/19 10:17:59;;;;;;;;;5.50;4.25;;;;;22.95;47.18;101186.88;5059309;28;45242;-49
2021/08/19 10:20:32;;;;;;;;;5.00;3.75;;;;;22.95;47.62;101188.69;5058931;28;45629;-51
2021/08/19 10:23:00;;;;;;;;;7.00;4.50;;;;;22.95;47.41;101189.53;5059518;28;45343;-50
2021/08/19 10:25:27;;;;;;;;;5.00;5.00;;;;;22.97;47.25;101190.28;5058612;28;45461;-49
2021/08/19 10:28:19;;;;;;;;;4.75;3.25;;;;;22.98;47.42;101192.00;5058628;28;45902;-45
2021/08/19 10:31:00;;;;;;;;;4.00;2.25;;;;;22.97;47.22;101192.09;5057536;28;45325;-50
2021/08/19 10:33:37;;;;;;;;;3.50;3.50;;;;;22.98;47.68;101196.44;5059050;28;45360;-51
2021/08/19 10:36:11;;;;;;;;;4.00;3.00;;;;;22.98;47.50;101192.00;5058790;28;45453;-55
2021/08/19 10:38:41;;;;;;;;;4.50;4.25;;;;;22.98;47.30;101197.28;5058532;28;45412;-50
2021/08/19 10:41:31;;;;;;;;;5.50;4.00;;;;;22.99;47.26;101198.13;5058623;28;45336;-52
2021/08/19 10:44:15;;;;;;;;;6.50;3.50;;;;;22.97;47.33;101189.47;5058438;28;45311;-54
2021/08/19 10:46:44;;;;;;;;;3.25;3.25;;;;;22.97;47.35;101190.28;5058396;28;46208;-48
2021/08/19 10:49:29;;;;;;;;;5.25;3.50;;;;;22.97;47.10;101190.28;5058349;28;45255;-53
2021/08/19 10:51:55;;;;;;;;;3.50;3.50;;;;;22.98;47.38;101199.09;5058495;28;45250;-46
2021/08/19 10:54:40;;;;;;;;;4.00;4.00;;;;;22.99;47.33;101192.84;5058722;28;45370;-47
2021/08/19 10:57:32;;;;;;;;;5.00;3.75;;;;;22.99;47.30;101196.34;5058216;28;47232;-49
2021/08/19 11:00:09;;;;;;;;;6.00;4.75;;;;;23.01;47.25;101196.25;5058144;28;45891;-54
2021/08/19 11:02:54;;;;;;;;;3.25;3.25;;;;;23.01;47.11;101193.59;5058012;28;45252;-47
2021/08/19 11:05:28;;;;;;;;;4.00;4.00;;;;;22.99;47.20;101192.84;5058448;28;45318;-50
2021/08/19 11:07:58;;;;;;;;;4.50;3.25;;;;;22.98;47.02;101192.00;5057933;28;45472;-49
2021/08/19 11:10:31;;;;;;;;;4.00;4.00;;;;;22.99;47.38;101196.34;5058011;28;45343;-49
2021/08/19 11:13:05;;;;;;;;;4.50;4.50;;;;;22.99;47.19;101192.84;5058200;28;45233;-50
2021/08/19 11:15:31;;;;;;;;;5.25;4.00;;;;;22.98;47.32;101197.28;5040409;28;45244;-50
2021/08/19 11:17:59;;;;;;;;;3.75;3.75;;;;;23.00;47.27;101191.91;5057783;28;46421;-47
2021/08/19 11:20:31;;;;;;;;;4.00;4.00;;;;;22.99;47.08;101190.19;5057869;28;45328;-49
2021/08/19 11:23:05;;;;;;;;;6.75;4.00;;;;;22.97;47.11;101186.81;5057986;28;45217;-51